createdAt,value
2023-01-29T00:00:26.255Z,15.48
2023-01-29T00:02:53.964Z,15.38
2023-01-29T00:05:28.027Z,15.45
2023-01-29T00:07:56.202Z,16.38
2023-01-29T00:10:24.559Z,15.90
2023-01-29T00:12:52.691Z,14.68
2023-01-29T00:15:20.896Z,15.10
2023-01-29T00:17:50.017Z,15.02
2023-01-29T00:20:18.768Z,16.33
2023-01-29T00:22:46.698Z,15.30
2023-01-29T00:25:14.408Z,16.25
2023-01-29T00:27:42.137Z,16.42
2023-01-29T00:30:12.832Z,17.15
2023-01-29T00:32:40.747Z,16.70
2023-01-29T00:35:10.802Z,15.88
2023-01-29T00:37:38.651Z,15.85
2023-01-29T00:40:07.477Z,16.05
2023-01-29T00:42:52.841Z,16.40
2023-01-29T00:45:20.511Z,18.02
2023-01-29T00:47:48.303Z,16.92
2023-01-29T00:50:17.783Z,16.92
2023-01-29T00:52:45.900Z,17.02
2023-01-29T00:55:13.889Z,16.27
2023-01-29T00:57:41.624Z,17.00
2023-01-29T01:00:14.666Z,17.48
2023-01-29T01:03:00.240Z,16.52
2023-01-29T01:05:29.523Z,16.05
2023-01-29T01:07:59.238Z,17.20
2023-01-29T01:10:29.502Z,17.10
2023-01-29T01:12:59.750Z,18.00
2023-01-29T01:15:29.371Z,18.65
2023-01-29T01:17:58.252Z,17.58
2023-01-29T01:20:26.620Z,17.48
2023-01-29T01:22:56.323Z,18.85
2023-01-29T01:25:25.138Z,18.05
2023-01-29T01:27:53.668Z,19.20
2023-01-29T01:30:21.839Z,18.25
2023-01-29T01:32:49.986Z,19.60
2023-01-29T01:35:18.067Z,18.40
2023-01-29T01:37:45.790Z,18.05
2023-01-29T01:40:21.254Z,18.42
2023-01-29T01:42:50.176Z,18.58
2023-01-29T01:45:25.766Z,18.00
2023-01-29T01:47:57.519Z,17.50
2023-01-29T01:50:29.764Z,16.92
2023-01-29T01:53:03.555Z,17.67
2023-01-29T01:55:35.549Z,18.40
2023-01-29T01:58:10.377Z,17.33
2023-01-29T02:00:39.632Z,18.48
2023-01-29T02:03:27.341Z,17.25
2023-01-29T02:09:06.079Z,17.30
2023-01-29T02:11:35.131Z,18.60
2023-01-29T02:14:03.598Z,19.35
2023-01-29T02:16:31.509Z,17.88
2023-01-29T02:18:59.228Z,18.42
2023-01-29T02:21:52.046Z,18.10
2023-01-29T02:25:09.941Z,18.15
2023-01-29T02:28:10.261Z,18.52
2023-01-29T02:30:44.132Z,18.58
2023-01-29T02:33:21.381Z,17.10
2023-01-29T02:35:57.211Z,19.00
2023-01-29T02:38:31.741Z,16.58
2023-01-29T02:41:03.174Z,17.58
2023-01-29T02:43:38.552Z,18.27
2023-01-29T02:46:16.973Z,17.75
2023-01-29T02:48:54.972Z,17.98
2023-01-29T02:51:31.238Z,17.63
2023-01-29T02:54:04.687Z,19.23
2023-01-29T02:56:39.772Z,17.08
2023-01-29T02:59:11.092Z,17.80
2023-01-29T03:01:47.061Z,18.60
2023-01-29T03:04:21.004Z,17.45
2023-01-29T03:06:54.515Z,19.80
2023-01-29T03:09:29.385Z,17.92
2023-01-29T03:12:20.002Z,18.90
2023-01-29T03:15:09.076Z,20.08
2023-01-29T03:17:42.981Z,18.40
2023-01-29T03:20:15.733Z,18.40
2023-01-29T03:22:48.979Z,18.17
2023-01-29T03:25:37.227Z,18.63
2023-01-29T03:28:24.958Z,18.65
2023-01-29T03:33:46.624Z,17.75
2023-01-29T03:36:19.615Z,19.02
2023-01-29T03:38:47.372Z,19.42
2023-01-29T03:41:24.278Z,19.30
2023-01-29T03:44:00.648Z,19.98
2023-01-29T03:46:34.812Z,17.20
2023-01-29T03:49:13.162Z,17.88
2023-01-29T03:51:54.653Z,18.80
2023-01-29T03:54:27.347Z,18.85
2023-01-29T03:57:01.266Z,19.63
2023-01-29T03:59:38.781Z,18.55
2023-01-29T04:02:10.101Z,16.85
2023-01-29T04:04:42.543Z,18.63
2023-01-29T04:07:13.519Z,19.17
2023-01-29T04:09:47.534Z,18.73
2023-01-29T04:12:19.717Z,18.33
2023-01-29T04:14:48.682Z,18.80
2023-01-29T04:17:20.878Z,18.23
2023-01-29T04:19:50.084Z,17.75
2023-01-29T04:22:21.262Z,17.60
2023-01-29T04:24:50.609Z,17.80
2023-01-29T04:27:28.648Z,18.35
2023-01-29T04:30:07.044Z,18.48
2023-01-29T04:32:48.045Z,18.65
2023-01-29T04:35:30.686Z,17.13
2023-01-29T04:38:07.455Z,18.10
2023-01-29T04:40:43.534Z,18.20
2023-01-29T04:43:19.164Z,17.83
2023-01-29T04:46:00.370Z,17.00
2023-01-29T04:48:31.675Z,18.00
2023-01-29T04:51:09.791Z,19.08
2023-01-29T04:53:42.498Z,17.50
2023-01-29T04:56:17.148Z,18.10
2023-01-29T04:58:49.918Z,17.77
2023-01-29T05:01:20.268Z,17.15
2023-01-29T05:03:51.276Z,18.02
2023-01-29T05:06:22.180Z,18.08
2023-01-29T05:08:52.199Z,17.52
2023-01-29T05:11:21.406Z,18.23
2023-01-29T05:13:50.021Z,17.27
2023-01-29T05:16:21.956Z,17.85
2023-01-29T05:18:49.781Z,17.25
2023-01-29T05:21:17.560Z,18.35
2023-01-29T05:23:53.361Z,18.17
2023-01-29T05:26:39.175Z,18.02
2023-01-29T05:29:07.007Z,18.58
2023-01-29T05:31:34.703Z,17.98
2023-01-29T05:34:02.436Z,17.58
2023-01-29T05:36:30.697Z,17.90
2023-01-29T05:38:59.819Z,19.27
2023-01-29T05:41:27.609Z,17.70
2023-01-29T05:43:55.332Z,18.02
2023-01-29T05:46:23.074Z,18.55
2023-01-29T05:48:53.650Z,16.95
2023-01-29T05:51:21.380Z,17.55
2023-01-29T05:53:49.121Z,19.27
2023-01-29T05:56:18.236Z,18.35
2023-01-29T05:58:45.980Z,18.77
2023-01-29T06:01:16.188Z,18.70
2023-01-29T06:03:44.248Z,17.42
2023-01-29T06:06:12.268Z,17.17
2023-01-29T06:08:40.262Z,19.92
2023-01-29T06:11:10.422Z,18.08
2023-01-29T06:13:39.807Z,17.20
2023-01-29T06:16:08.545Z,17.88
2023-01-29T06:18:36.913Z,18.38
2023-01-29T06:21:05.955Z,17.30
2023-01-29T06:23:34.185Z,16.85
2023-01-29T06:26:02.161Z,17.73
2023-01-29T06:28:30.258Z,16.92
2023-01-29T06:31:11.447Z,17.05
2023-01-29T06:33:44.127Z,17.60
2023-01-29T06:36:12.061Z,18.98
2023-01-29T06:38:39.731Z,17.17
2023-01-29T06:41:13.525Z,19.27
2023-01-29T06:43:41.231Z,18.73
2023-01-29T06:46:10.269Z,17.50
2023-01-29T06:48:38.138Z,17.45
2023-01-29T06:51:07.912Z,18.15
2023-01-29T06:53:36.914Z,17.38
2023-01-29T06:56:05.356Z,17.45
2023-01-29T06:58:33.254Z,18.05
2023-01-29T07:01:04.937Z,17.10
2023-01-29T07:03:34.336Z,17.50
2023-01-29T07:06:02.443Z,16.08
2023-01-29T07:08:30.126Z,17.92
2023-01-29T07:11:00.895Z,17.48
2023-01-29T07:13:28.899Z,17.60
2023-01-29T07:15:59.591Z,17.48
2023-01-29T07:18:27.443Z,18.30
2023-01-29T07:20:57.162Z,18.52
2023-01-29T07:23:25.413Z,19.00
2023-01-29T07:25:53.149Z,18.27
2023-01-29T07:28:21.451Z,17.58
2023-01-29T07:30:49.334Z,18.45
2023-01-29T07:33:17.063Z,17.05
2023-01-29T07:35:44.805Z,18.35
2023-01-29T07:38:13.899Z,18.85
2023-01-29T07:40:41.640Z,17.75
2023-01-29T07:43:10.833Z,17.00
2023-01-29T07:45:40.401Z,18.73
2023-01-29T07:48:10.929Z,17.65
2023-01-29T07:50:39.267Z,17.83
2023-01-29T07:53:07.090Z,17.23
2023-01-29T07:55:36.305Z,17.52
2023-01-29T07:58:05.042Z,18.48
2023-01-29T08:00:33.345Z,18.23
2023-01-29T08:03:04.797Z,18.58
2023-01-29T08:05:32.808Z,18.65
2023-01-29T08:08:06.892Z,17.60
2023-01-29T08:10:36.795Z,18.33
2023-01-29T08:13:05.543Z,19.38
2023-01-29T08:15:33.948Z,18.25
2023-01-29T08:18:02.560Z,17.88
2023-01-29T08:20:30.550Z,18.13
2023-01-29T08:23:02.149Z,18.13
2023-01-29T08:25:30.576Z,17.75
2023-01-29T08:28:01.177Z,18.88
2023-01-29T08:30:30.535Z,17.45
2023-01-29T08:32:58.453Z,17.70
2023-01-29T08:35:26.636Z,16.98
2023-01-29T08:37:55.639Z,17.88
2023-01-29T08:40:23.470Z,19.90
2023-01-29T08:42:51.210Z,18.25
2023-01-29T08:45:20.335Z,17.63
2023-01-29T08:47:48.981Z,17.42
2023-01-29T08:50:17.657Z,17.05
2023-01-29T08:52:46.192Z,17.77
2023-01-29T08:55:14.996Z,16.88
2023-01-29T08:57:42.887Z,16.92
2023-01-29T09:00:13.126Z,17.98
2023-01-29T09:02:42.240Z,18.75
2023-01-29T09:05:10.709Z,17.15
2023-01-29T09:07:38.470Z,16.92
2023-01-29T09:10:07.110Z,16.38
2023-01-29T09:12:34.888Z,16.15
2023-01-29T09:15:02.644Z,17.58
2023-01-29T09:17:30.360Z,18.00
2023-01-29T09:19:59.410Z,17.60
2023-01-29T09:22:27.192Z,17.15
2023-01-29T09:24:54.930Z,17.92
2023-01-29T09:27:22.648Z,16.98
2023-01-29T09:29:50.389Z,16.88
2023-01-29T09:32:37.641Z,16.38
2023-01-29T09:35:08.070Z,17.02
2023-01-29T09:37:36.026Z,16.55
2023-01-29T09:40:03.812Z,16.52
2023-01-29T09:42:39.305Z,16.23
2023-01-29T09:45:13.838Z,15.88
2023-01-29T09:47:41.815Z,16.38
2023-01-29T09:50:19.990Z,18.23
2023-01-29T09:52:53.775Z,17.25
2023-01-29T09:55:26.063Z,16.83
2023-01-29T09:57:57.071Z,17.10
2023-01-29T10:00:29.536Z,16.50
2023-01-29T10:03:18.996Z,16.15
2023-01-29T10:06:04.941Z,16.25
2023-01-29T10:08:56.832Z,17.05
2023-01-29T10:11:34.184Z,15.98
2023-01-29T10:14:13.091Z,16.55
2023-01-29T10:16:52.884Z,16.50
2023-01-29T10:19:42.126Z,16.38
2023-01-29T10:22:31.805Z,16.40
2023-01-29T10:25:03.440Z,16.80
2023-01-29T10:27:35.052Z,17.27
2023-01-29T10:30:09.500Z,15.40
2023-01-29T10:32:38.571Z,17.35
2023-01-29T10:35:21.440Z,17.27
2023-01-29T10:37:54.237Z,15.43
2023-01-29T10:40:24.925Z,16.75
2023-01-29T10:43:01.487Z,16.40
2023-01-29T10:45:38.276Z,14.95
2023-01-29T10:48:45.575Z,15.20
2023-01-29T10:51:26.843Z,15.90
2023-01-29T10:54:10.572Z,15.63
2023-01-29T10:56:55.653Z,15.43
2023-01-29T10:59:40.480Z,15.55
2023-01-29T11:02:17.821Z,14.40
2023-01-29T11:04:46.159Z,15.43
2023-01-29T11:07:16.114Z,14.73
2023-01-29T11:09:49.938Z,14.65
2023-01-29T11:12:21.728Z,14.73
2023-01-29T11:14:54.752Z,15.25
2023-01-29T11:17:24.962Z,14.85
2023-01-29T11:19:55.628Z,15.57
2023-01-29T11:22:24.567Z,15.30
2023-01-29T11:25:10.902Z,15.02
2023-01-29T11:27:45.090Z,14.15
2023-01-29T11:30:20.742Z,15.00
2023-01-29T11:32:52.849Z,14.23
2023-01-29T11:35:26.583Z,14.82
2023-01-29T11:37:54.296Z,15.55
2023-01-29T11:40:38.871Z,14.25
2023-01-29T11:43:18.841Z,14.80
2023-01-29T11:45:47.671Z,15.65
2023-01-29T11:48:17.814Z,14.32
2023-01-29T11:50:53.008Z,14.68
2023-01-29T11:53:32.720Z,13.45
2023-01-29T11:56:04.041Z,14.95
2023-01-29T11:58:35.716Z,14.77
2023-01-29T12:01:04.763Z,14.98
2023-01-29T12:03:36.988Z,14.65
2023-01-29T12:06:08.184Z,14.32
2023-01-29T12:08:39.102Z,14.05
2023-01-29T12:11:13.723Z,14.80
2023-01-29T12:13:43.746Z,13.93
2023-01-29T12:16:20.202Z,13.70
2023-01-29T12:18:52.496Z,14.23
2023-01-29T12:21:27.097Z,15.48
2023-01-29T12:24:02.469Z,13.88
2023-01-29T12:26:35.250Z,14.73
2023-01-29T12:29:19.148Z,13.82
2023-01-29T12:31:54.637Z,14.48
2023-01-29T12:34:31.942Z,14.35
2023-01-29T12:37:04.284Z,13.75
2023-01-29T12:39:32.543Z,13.48
2023-01-29T12:42:06.250Z,13.77
2023-01-29T12:44:42.097Z,14.40
2023-01-29T12:47:17.178Z,13.20
2023-01-29T12:49:50.965Z,13.40
2023-01-29T12:52:23.780Z,14.60
2023-01-29T12:54:56.389Z,14.55
2023-01-29T12:57:36.074Z,13.93
2023-01-29T13:00:08.850Z,12.88
2023-01-29T13:02:41.023Z,14.43
2023-01-29T13:05:20.624Z,14.30
2023-01-29T13:07:52.534Z,14.30
2023-01-29T13:10:24.208Z,13.48
2023-01-29T13:13:00.867Z,14.45
2023-01-29T13:15:34.241Z,13.07
2023-01-29T13:18:21.639Z,14.00
2023-01-29T13:20:50.792Z,14.38
2023-01-29T13:23:22.768Z,13.73
2023-01-29T13:25:54.691Z,13.30
2023-01-29T13:28:26.602Z,13.63
2023-01-29T13:31:19.150Z,14.75
2023-01-29T13:33:55.133Z,13.60
2023-01-29T13:36:27.412Z,13.38
2023-01-29T13:39:01.250Z,13.95
2023-01-29T13:41:41.577Z,13.60
2023-01-29T13:44:22.076Z,13.98
2023-01-29T13:46:52.742Z,13.15
2023-01-29T13:49:28.747Z,13.70
2023-01-29T13:51:56.735Z,13.77
2023-01-29T13:54:27.277Z,13.15
2023-01-29T13:57:00.506Z,12.82
2023-01-29T13:59:53.211Z,14.68
2023-01-29T14:02:25.968Z,14.00
2023-01-29T14:05:32.113Z,13.10
2023-01-29T14:08:01.193Z,13.13
2023-01-29T14:10:30.557Z,15.25
2023-01-29T14:13:28.032Z,13.52
2023-01-29T14:16:43.794Z,15.85
2023-01-29T14:19:20.408Z,14.88
2023-01-29T14:21:51.592Z,14.85
2023-01-29T14:24:22.208Z,12.82
2023-01-29T14:26:54.943Z,13.65
2023-01-29T14:29:34.148Z,13.23
2023-01-29T14:32:13.178Z,13.02
2023-01-29T14:34:47.604Z,13.75
2023-01-29T14:37:23.001Z,13.75
2023-01-29T14:39:52.714Z,13.77
2023-01-29T14:42:25.493Z,12.63
2023-01-29T14:45:08.251Z,13.95
2023-01-29T14:48:21.080Z,12.50
2023-01-29T14:50:53.997Z,13.85
2023-01-29T14:53:28.663Z,13.90
2023-01-29T14:56:00.725Z,14.13
2023-01-29T14:58:39.635Z,13.10
2023-01-29T15:01:16.683Z,13.88
2023-01-29T15:06:21.111Z,13.35
2023-01-29T15:08:56.536Z,13.80
2023-01-29T15:11:36.608Z,13.45
2023-01-29T15:14:15.617Z,13.45
2023-01-29T15:16:53.060Z,13.52
2023-01-29T15:19:27.219Z,13.95
2023-01-29T15:22:14.737Z,13.98
2023-01-29T15:27:16.913Z,13.80
2023-01-29T15:29:48.897Z,13.38
2023-01-29T15:32:31.146Z,14.07
2023-01-29T15:35:00.403Z,13.43
2023-01-29T15:37:32.516Z,13.32
2023-01-29T15:40:04.212Z,13.00
2023-01-29T15:42:44.653Z,13.52
2023-01-29T15:45:28.399Z,13.27
2023-01-29T15:48:01.105Z,13.48
2023-01-29T15:50:30.288Z,13.85
2023-01-29T15:53:03.700Z,12.38
2023-01-29T15:55:32.727Z,14.07
2023-01-29T15:58:01.330Z,13.18
2023-01-29T16:00:30.636Z,13.45
2023-01-29T16:03:00.668Z,12.82
2023-01-29T16:05:30.563Z,12.43
2023-01-29T16:08:01.174Z,12.80
2023-01-29T16:10:31.916Z,12.07
2023-01-29T16:13:00.223Z,12.48
2023-01-29T16:15:34.512Z,12.10
2023-01-29T16:18:05.415Z,12.25
2023-01-29T16:20:37.410Z,12.18
2023-01-29T16:23:08.050Z,12.40
2023-01-29T16:25:39.811Z,11.95
2023-01-29T16:28:11.025Z,12.00
2023-01-29T16:30:39.979Z,12.25
2023-01-29T16:33:13.003Z,12.38
2023-01-29T16:35:41.482Z,12.55
2023-01-29T16:38:25.094Z,11.65
2023-01-29T16:41:07.197Z,11.90
2023-01-29T16:43:50.207Z,12.02
2023-01-29T16:46:22.435Z,10.93
2023-01-29T16:48:50.162Z,12.30
2023-01-29T16:51:24.633Z,11.52
2023-01-29T16:54:09.112Z,11.77
2023-01-29T16:56:39.116Z,11.82
2023-01-29T16:59:07.868Z,10.65
2023-01-29T17:01:37.445Z,11.35
2023-01-29T17:04:09.991Z,11.73
2023-01-29T17:06:38.981Z,11.30
2023-01-29T17:09:08.270Z,11.73
2023-01-29T17:11:39.228Z,12.10
2023-01-29T17:14:08.654Z,11.68
2023-01-29T17:16:47.547Z,11.32
2023-01-29T17:19:20.872Z,11.70
2023-01-29T17:21:48.789Z,12.02
2023-01-29T17:24:17.916Z,10.40
2023-01-29T17:26:45.873Z,12.07
2023-01-29T17:29:16.507Z,11.77
2023-01-29T17:31:44.499Z,11.43
2023-01-29T17:34:14.367Z,11.70
2023-01-29T17:36:42.143Z,11.90
2023-01-29T17:39:19.183Z,10.07
2023-01-29T17:44:16.263Z,11.10
2023-01-29T17:46:44.083Z,10.13
2023-01-29T17:49:21.642Z,11.05
2023-01-29T17:51:50.408Z,10.80
2023-01-29T17:54:19.953Z,11.35
2023-01-29T17:56:47.848Z,10.90
2023-01-29T17:59:16.521Z,11.02
2023-01-29T18:01:45.083Z,10.70
2023-01-29T18:04:13.521Z,10.35
2023-01-29T18:06:43.049Z,10.30
2023-01-29T18:09:14.212Z,10.13
2023-01-29T18:11:44.304Z,9.98
2023-01-29T18:14:13.918Z,10.20
2023-01-29T18:16:43.140Z,9.43
2023-01-29T18:19:15.491Z,11.43
2023-01-29T18:21:43.266Z,10.85
2023-01-29T18:24:11.151Z,10.73
2023-01-29T18:26:39.507Z,10.68
2023-01-29T18:29:09.328Z,10.23
2023-01-29T18:31:37.120Z,11.82
2023-01-29T18:34:04.889Z,11.10
2023-01-29T18:36:32.608Z,10.60
2023-01-29T18:39:00.368Z,11.35
2023-01-29T18:41:28.110Z,12.00
2023-01-29T18:43:55.893Z,11.75
2023-01-29T18:46:25.141Z,11.85
2023-01-29T18:48:52.931Z,10.85
2023-01-29T18:51:20.736Z,11.60
2023-01-29T18:53:51.593Z,11.45
2023-01-29T18:56:19.803Z,11.40
2023-01-29T18:58:52.453Z,11.30
2023-01-29T19:01:27.177Z,12.73
2023-01-29T19:03:56.063Z,11.77
2023-01-29T19:06:23.800Z,11.45
2023-01-29T19:08:51.716Z,12.13
2023-01-29T19:11:19.523Z,12.65
2023-01-29T19:13:48.030Z,12.55
2023-01-29T19:16:15.789Z,11.35
2023-01-29T19:18:44.871Z,12.30
2023-01-29T19:21:14.498Z,12.20
2023-01-29T19:23:43.083Z,12.45
2023-01-29T19:26:11.504Z,12.38
2023-01-29T19:28:39.362Z,12.98
2023-01-29T19:31:07.223Z,12.48
2023-01-29T19:33:34.976Z,12.35
2023-01-29T19:36:04.167Z,11.98
2023-01-29T19:38:33.576Z,12.35
2023-01-29T19:41:01.328Z,12.90
2023-01-29T19:43:30.411Z,13.32
2023-01-29T19:45:59.606Z,12.57
2023-01-29T19:48:27.674Z,12.00
2023-01-29T19:50:57.083Z,12.35
2023-01-29T19:53:28.185Z,13.68
2023-01-29T19:55:59.903Z,13.35
2023-01-29T19:58:28.343Z,12.48
2023-01-29T20:00:59.340Z,12.93
2023-01-29T20:03:28.883Z,12.18
2023-01-29T20:05:57.277Z,14.25
2023-01-29T20:08:26.338Z,13.77
2023-01-29T20:10:54.109Z,14.20
2023-01-29T20:13:21.953Z,13.98
2023-01-29T20:15:51.755Z,13.70
2023-01-29T20:18:19.988Z,13.25
2023-01-29T20:20:49.495Z,13.73
2023-01-29T20:23:31.833Z,13.73
2023-01-29T20:26:06.481Z,14.07
2023-01-29T20:28:34.554Z,15.05
2023-01-29T20:31:02.354Z,14.00
2023-01-29T20:33:30.203Z,14.18
2023-01-29T20:35:59.681Z,14.48
2023-01-29T20:38:30.533Z,14.23
2023-01-29T20:41:05.563Z,13.98
2023-01-29T20:43:33.569Z,14.80
2023-01-29T20:46:02.308Z,13.15
2023-01-29T20:48:30.845Z,14.43
2023-01-29T20:51:03.765Z,14.40
2023-01-29T20:53:31.529Z,13.65
2023-01-29T20:55:59.238Z,13.57
2023-01-29T20:58:28.572Z,15.38
2023-01-29T21:00:56.310Z,14.68
2023-01-29T21:03:24.095Z,14.50
2023-01-29T21:05:52.311Z,13.35
2023-01-29T21:08:20.126Z,14.85
2023-01-29T21:10:50.532Z,15.40
2023-01-29T21:13:18.284Z,14.35
2023-01-29T21:15:47.367Z,14.57
2023-01-29T21:18:15.048Z,14.32
2023-01-29T21:20:42.802Z,15.02
2023-01-29T21:23:10.660Z,14.38
2023-01-29T21:25:39.579Z,14.23
2023-01-29T21:28:07.344Z,14.75
2023-01-29T21:30:35.611Z,14.50
2023-01-29T21:33:05.181Z,14.93
2023-01-29T21:35:33.352Z,15.13
2023-01-29T21:38:01.071Z,14.23
2023-01-29T21:40:30.518Z,14.60
2023-01-29T21:43:13.577Z,14.00
2023-01-29T21:45:41.794Z,15.45
2023-01-29T21:48:12.015Z,14.27
2023-01-29T21:50:39.987Z,14.00
2023-01-29T21:53:07.884Z,14.00
2023-01-29T21:55:35.649Z,15.82
2023-01-29T21:58:04.360Z,15.73
2023-01-29T22:00:32.128Z,15.77
2023-01-29T22:02:59.981Z,16.13
2023-01-29T22:05:30.127Z,14.90
2023-01-29T22:07:57.958Z,16.05
2023-01-29T22:10:25.853Z,15.48
2023-01-29T22:12:53.865Z,15.35
2023-01-29T22:15:23.619Z,15.95
2023-01-29T22:17:52.009Z,16.65
2023-01-29T22:20:20.549Z,16.65
2023-01-29T22:22:49.711Z,15.60
2023-01-29T22:25:20.105Z,16.27
2023-01-29T22:27:47.873Z,16.00
2023-01-29T22:30:16.143Z,16.35
2023-01-29T22:32:44.155Z,15.98
2023-01-29T22:35:11.883Z,15.38
2023-01-29T22:37:39.573Z,15.85
2023-01-29T22:40:10.415Z,16.65
2023-01-29T22:42:38.126Z,15.07
2023-01-29T22:45:06.617Z,15.88
2023-01-29T22:47:34.522Z,15.35
2023-01-29T22:50:02.267Z,14.80
2023-01-29T22:52:38.217Z,16.65
2023-01-29T22:55:10.087Z,15.63
2023-01-29T22:57:38.249Z,16.67
2023-01-29T23:00:08.786Z,15.68
2023-01-29T23:02:36.585Z,15.25
2023-01-29T23:05:04.800Z,17.42
2023-01-29T23:07:32.586Z,15.20
2023-01-29T23:10:00.276Z,14.50
2023-01-29T23:12:29.340Z,16.23
2023-01-29T23:14:57.110Z,15.95
2023-01-29T23:17:25.011Z,16.35
2023-01-29T23:19:52.767Z,15.82
2023-01-29T23:22:20.467Z,15.07
2023-01-29T23:24:48.192Z,14.20
2023-01-29T23:27:15.149Z,15.50
2023-01-29T23:29:45.149Z,14.45
2023-01-29T23:32:17.521Z,15.75
2023-01-29T23:34:45.264Z,17.90
2023-01-29T23:37:13.151Z,15.20
2023-01-29T23:39:40.827Z,16.80
2023-01-29T23:42:08.517Z,17.02
2023-01-29T23:44:36.665Z,15.35
2023-01-29T23:47:05.871Z,16.55
2023-01-29T23:49:33.614Z,15.15
2023-01-29T23:52:01.486Z,15.40
2023-01-29T23:54:29.207Z,14.93
2023-01-29T23:56:56.996Z,15.05
2023-01-29T23:59:28.014Z,15.45
